Time;durP1;ratioP1;P1;durP2;ratioP2;P2;SDS_P1;SDS_P2;PMS_P1;PMS_P2;Temp;Humidity;BMP_temperature;BMP_pressure;BME280_temperature;BME280_humidity;BME280_pressure;Samples;Min_cycle;Max_cycle;Signal;HPM_P1;HPM_P2
2022/12/05 00:01:52;;;;;;;32.13;18.40;;;5.40;99.90;;;;;;5015254;28;20188;-72
2022/12/05 00:04:18;;;;;;;28.58;16.05;;;5.40;99.90;;;;;;5012943;28;20267;-73
2022/12/05 00:06:44;;;;;;;29.45;17.98;;;5.40;99.90;;;;;;4995294;28;20213;-72
2022/12/05 00:09:11;;;;;;;28.98;15.95;;;5.30;99.90;;;;;;5003272;28;20264;-72
2022/12/05 00:11:38;;;;;;;28.80;16.27;;;5.20;99.90;;;;;;5014870;28;20204;-72
2022/12/05 00:14:07;;;;;;;27.17;15.15;;;5.10;99.90;;;;;;5014264;28;20201;-72
2022/12/05 00:16:35;;;;;;;22.42;11.32;;;5.10;99.90;;;;;;5007762;28;20641;-72
2022/12/05 00:19:01;;;;;;;21.67;13.35;;;5.20;99.90;;;;;;5011518;28;20185;-72
2022/12/05 00:21:29;;;;;;;21.10;11.15;;;5.20;99.90;;;;;;5010091;28;20208;-71
2022/12/05 00:23:56;;;;;;;28.25;15.25;;;5.20;99.90;;;;;;5007523;28;20177;-72
2022/12/05 00:26:22;;;;;;;30.45;15.65;;;5.10;99.90;;;;;;5010477;28;20228;-73
2022/12/05 00:28:48;;;;;;;21.20;11.40;;;5.00;99.90;;;;;;5014085;28;20585;-74
2022/12/05 00:31:17;;;;;;;27.75;16.30;;;5.00;99.90;;;;;;5009641;28;20174;-72
2022/12/05 00:33:44;;;;;;;28.63;15.90;;;5.00;99.90;;;;;;5007104;28;20599;-72
2022/12/05 00:36:12;;;;;;;24.92;14.93;;;4.90;99.90;;;;;;5008739;28;20177;-72
2022/12/05 00:38:38;;;;;;;27.25;15.30;;;4.90;99.90;;;;;;5014324;28;20193;-72
2022/12/05 00:41:06;;;;;;;26.83;14.80;;;4.70;99.90;;;;;;5009796;28;20185;-71
2022/12/05 00:43:33;;;;;;;19.70;13.85;;;4.70;99.90;;;;;;5006746;28;20170;-71
2022/12/05 00:46:02;;;;;;;22.52;14.60;;;4.70;99.90;;;;;;5006656;28;20196;-71
2022/12/05 00:48:28;;;;;;;21.13;12.80;;;4.70;99.90;;;;;;5001364;28;20255;-71
2022/12/05 00:51:09;;;;;;;22.60;13.48;;;4.80;99.90;;;;;;5013847;28;20252;-72
2022/12/05 00:53:35;;;;;;;20.42;12.40;;;4.80;99.90;;;;;;5013350;28;20188;-73
2022/12/05 00:56:03;;;;;;;21.30;14.40;;;4.80;99.90;;;;;;5012049;28;20169;-72
2022/12/05 00:58:29;;;;;;;18.88;12.82;;;4.80;99.90;;;;;;5014134;28;20208;-72
2022/12/05 01:00:54;;;;;;;20.92;13.15;;;4.60;99.90;;;;;;5013931;28;20173;-72
2022/12/05 01:03:20;;;;;;;18.95;11.23;;;4.70;99.90;;;;;;5013565;28;20181;-72
2022/12/05 01:05:45;;;;;;;19.40;12.07;;;4.70;99.90;;;;;;4993148;28;20182;-73
2022/12/05 01:08:11;;;;;;;18.98;11.48;;;4.70;99.90;;;;;;4993395;28;20210;-72
2022/12/05 01:10:37;;;;;;;18.25;11.40;;;4.70;99.90;;;;;;4997180;28;20255;-72
2022/12/05 01:13:02;;;;;;;19.67;12.65;;;4.60;99.90;;;;;;5014029;28;20170;-72
2022/12/05 01:15:28;;;;;;;21.80;11.82;;;4.60;99.90;;;;;;5013774;28;20640;-73
2022/12/05 01:17:53;;;;;;;19.38;12.65;;;4.70;99.90;;;;;;5013696;28;20205;-73
2022/12/05 01:20:19;;;;;;;18.73;12.93;;;4.80;99.90;;;;;;5012743;28;20184;-72
2022/12/05 01:22:44;;;;;;;19.08;11.50;;;4.70;99.90;;;;;;5013530;28;20636;-72
2022/12/05 01:25:10;;;;;;;17.88;11.45;;;4.60;99.90;;;;;;5012007;28;20181;-72
2022/12/05 01:27:36;;;;;;;17.02;10.60;;;4.60;99.90;;;;;;5012621;28;20765;-72
2022/12/05 01:30:01;;;;;;;16.48;11.27;;;4.70;99.90;;;;;;5006370;28;20177;-72
2022/12/05 01:32:27;;;;;;;12.50;8.10;;;4.80;99.90;;;;;;5012032;28;20224;-72
2022/12/05 01:34:53;;;;;;;17.88;10.70;;;4.70;99.90;;;;;;5012902;28;20186;-72
2022/12/05 01:37:19;;;;;;;13.88;8.13;;;4.80;99.90;;;;;;5005307;28;20206;-72
2022/12/05 01:39:44;;;;;;;9.32;6.72;;;4.70;99.90;;;;;;5013193;28;20182;-72
2022/12/05 01:42:11;;;;;;;18.25;11.52;;;4.80;99.90;;;;;;5009519;28;20188;-72
2022/12/05 01:44:37;;;;;;;19.33;11.38;;;4.80;99.90;;;;;;5012864;28;20184;-72
2022/12/05 01:47:02;;;;;;;19.85;11.05;;;4.60;99.90;;;;;;5012778;28;20687;-73
2022/12/05 01:49:40;;;;;;;23.20;13.45;;;4.60;99.90;;;;;;5004964;28;20272;-71
2022/12/05 01:52:20;;;;;;;21.23;12.65;;;4.50;99.90;;;;;;5010367;28;20177;-71
2022/12/05 01:54:47;;;;;;;16.55;11.75;;;4.50;99.90;;;;;;5003849;28;20180;-71
2022/12/05 01:57:13;;;;;;;22.58;13.15;;;4.40;99.90;;;;;;5013183;28;20277;-72
2022/12/05 01:59:47;;;;;;;13.65;8.27;;;4.40;99.90;;;;;;5012083;28;20701;-72
2022/12/05 02:02:13;;;;;;;19.10;11.35;;;4.50;99.90;;;;;;5009859;28;20208;-71
2022/12/05 02:05:09;;;;;;;15.70;11.35;;;4.60;99.90;;;;;;5008844;28;20213;-71
2022/12/05 02:07:38;;;;;;;17.17;10.57;;;4.60;99.90;;;;;;5011597;28;20241;-71
2022/12/05 02:10:05;;;;;;;17.27;10.52;;;4.50;99.90;;;;;;5010304;28;20169;-71
2022/12/05 02:12:30;;;;;;;16.45;10.20;;;4.50;99.90;;;;;;5012496;28;20188;-71
2022/12/05 02:15:29;;;;;;;12.60;7.60;;;4.60;99.90;;;;;;5007975;28;20252;-71
2022/12/05 02:18:22;;;;;;;12.68;9.15;;;4.70;99.90;;;;;;5003098;28;20197;-71
2022/12/05 02:21:22;;;;;;;16.40;10.57;;;4.60;99.90;;;;;;5007208;28;20177;-71
2022/12/05 02:24:25;;;;;;;15.13;9.73;;;4.70;99.90;;;;;;4986537;28;20201;-72
2022/12/05 02:27:12;;;;;;;16.15;10.73;;;4.60;99.90;;;;;;5010539;28;20207;-71
2022/12/05 02:30:06;;;;;;;20.55;12.05;;;4.50;99.90;;;;;;5008233;28;20181;-73
2022/12/05 02:32:34;;;;;;;18.33;11.68;;;4.50;99.90;;;;;;5010988;28;20174;-73
2022/12/05 02:35:30;;;;;;;13.98;9.75;;;4.50;99.90;;;;;;5012503;28;20646;-72
2022/12/05 02:38:01;;;;;;;16.98;11.05;;;4.50;99.90;;;;;;5010402;28;20209;-72
2022/12/05 02:40:38;;;;;;;15.30;9.90;;;4.50;99.90;;;;;;5012400;28;20180;-71
2022/12/05 02:43:15;;;;;;;10.30;7.15;;;4.50;99.90;;;;;;5012178;28;20181;-72
2022/12/05 02:45:42;;;;;;;14.77;10.02;;;4.60;99.90;;;;;;5012130;28;20214;-72
2022/12/05 02:48:11;;;;;;;17.23;10.60;;;4.50;99.90;;;;;;5004002;28;20217;-73
2022/12/05 02:50:40;;;;;;;14.00;8.20;;;4.50;99.90;;;;;;5011472;28;20181;-72
2022/12/05 02:53:11;;;;;;;17.13;10.75;;;4.50;99.90;;;;;;5012466;28;20170;-72
2022/12/05 02:55:40;;;;;;;14.82;9.80;;;4.50;99.90;;;;;;4999679;28;20185;-72
2022/12/05 02:58:13;;;;;;;16.77;10.43;;;4.50;99.90;;;;;;5012258;28;20280;-72
2022/12/05 03:00:41;;;;;;;15.80;10.52;;;4.50;99.90;;;;;;5010761;28;20181;-73
2022/12/05 03:03:15;;;;;;;18.25;10.32;;;4.50;99.90;;;;;;5010056;28;20224;-72
2022/12/05 03:06:03;;;;;;;14.35;9.90;;;4.50;99.90;;;;;;5006305;28;20179;-72
2022/12/05 03:08:36;;;;;;;15.82;9.82;;;4.40;99.90;;;;;;5001296;28;20583;-72
2022/12/05 03:11:02;;;;;;;12.70;9.30;;;4.40;99.90;;;;;;5012004;28;20177;-72
2022/12/05 03:13:39;;;;;;;9.68;7.47;;;4.30;99.90;;;;;;5011823;28;20177;-72
2022/12/05 03:16:12;;;;;;;11.57;8.75;;;4.40;99.90;;;;;;5007073;28;20648;-71
2022/12/05 03:18:48;;;;;;;10.43;8.00;;;4.50;99.90;;;;;;5007842;28;20221;-71
2022/12/05 03:21:25;;;;;;;10.27;6.65;;;4.50;99.90;;;;;;5000478;28;20173;-71
2022/12/05 03:24:06;;;;;;;11.45;8.50;;;4.50;99.90;;;;;;5012301;28;20177;-72
2022/12/05 03:27:22;;;;;;;10.57;7.60;;;4.50;99.90;;;;;;5017893;28;20696;-72
2022/12/05 03:29:55;;;;;;;10.85;7.72;;;4.60;99.90;;;;;;4994709;28;20189;-71
2022/12/05 03:32:45;;;;;;;10.45;8.43;;;4.60;99.90;;;;;;4996658;28;20644;-71
2022/12/05 03:35:21;;;;;;;9.68;7.40;;;4.50;99.90;;;;;;4999729;28;20637;-71
2022/12/05 03:37:56;;;;;;;7.93;5.90;;;4.40;99.90;;;;;;5012001;28;20232;-71
2022/12/05 03:40:47;;;;;;;8.18;5.38;;;4.50;99.90;;;;;;5011530;28;20519;-71
2022/12/05 03:43:27;;;;;;;7.28;5.55;;;4.40;99.90;;;;;;5006868;28;20320;-71
2022/12/05 03:46:16;;;;;;;8.95;7.45;;;4.40;99.90;;;;;;5007353;28;20177;-71
2022/12/05 03:48:45;;;;;;;11.07;8.38;;;4.40;99.90;;;;;;5003506;28;20647;-72
2022/12/05 03:51:12;;;;;;;10.05;8.60;;;4.40;99.90;;;;;;5009616;28;20177;-72
2022/12/05 03:53:46;;;;;;;8.95;7.15;;;4.30;99.90;;;;;;5004546;28;20181;-72
2022/12/05 03:56:22;;;;;;;9.38;7.70;;;4.30;99.90;;;;;;5011732;28;20161;-73
2022/12/05 03:59:14;;;;;;;7.70;6.13;;;4.30;99.90;;;;;;5004308;28;20180;-71
2022/12/05 04:01:41;;;;;;;9.68;7.93;;;4.30;99.90;;;;;;4995243;28;20316;-72
2022/12/05 04:04:15;;;;;;;7.28;5.97;;;4.30;99.90;;;;;;5005281;28;20309;-72
2022/12/05 04:06:45;;;;;;;10.05;7.72;;;4.40;99.90;;;;;;5010293;28;20724;-72
2022/12/05 04:09:23;;;;;;;11.20;7.47;;;4.30;99.90;;;;;;4998134;28;20177;-72
2022/12/05 04:11:55;;;;;;;11.25;8.80;;;4.30;99.90;;;;;;5010972;28;20192;-72
2022/12/05 04:14:42;;;;;;;11.50;8.70;;;4.30;99.90;;;;;;5009722;28;20177;-72
2022/12/05 04:17:21;;;;;;;10.48;8.40;;;4.30;99.90;;;;;;5011632;28;20200;-71
2022/12/05 04:22:38;;;;;;;11.88;9.43;;;4.40;99.90;;;;;;5007137;28;20207;-73
2022/12/05 04:28:15;;;;;;;14.10;9.63;;;4.30;99.90;;;;;;5011032;28;20219;-72
2022/12/05 04:31:18;;;;;;;12.27;9.80;;;4.30;99.90;;;;;;5002393;28;20162;-73
2022/12/05 04:33:55;;;;;;;16.00;10.43;;;4.10;99.90;;;;;;5001423;28;20185;-73
2022/12/05 04:36:43;;;;;;;13.88;10.25;;;4.10;99.90;;;;;;5011275;28;20190;-72
2022/12/05 04:39:21;;;;;;;11.38;7.10;;;4.00;99.90;;;;;;5008218;28;20231;-72
2022/12/05 04:42:09;;;;;;;14.80;12.00;;;4.10;99.90;;;;;;5011137;28;20650;-72
2022/12/05 04:44:52;;;;;;;14.88;10.07;;;4.00;99.90;;;;;;5006620;28;20204;-72
2022/12/05 04:47:23;;;;;;;15.63;9.45;;;4.00;99.90;;;;;;5009628;28;20259;-72
2022/12/05 04:49:49;;;;;;;16.40;11.20;;;4.10;99.90;;;;;;5006723;28;20174;-72
2022/12/05 04:52:15;;;;;;;17.27;11.07;;;4.20;99.90;;;;;;5006891;28;20184;-71
2022/12/05 04:55:10;;;;;;;11.43;7.70;;;4.10;99.90;;;;;;5014299;28;20636;-72
2022/12/05 04:57:44;;;;;;;14.25;9.48;;;4.00;99.90;;;;;;5003564;28;20224;-72
2022/12/05 05:00:10;;;;;;;14.63;8.25;;;4.00;99.90;;;;;;5014416;28;20593;-72
2022/12/05 05:03:03;;;;;;;15.98;9.88;;;4.00;99.90;;;;;;5014492;28;20252;-71
2022/12/05 05:05:31;;;;;;;17.77;10.93;;;4.00;99.90;;;;;;5006073;28;20200;-72
2022/12/05 05:07:57;;;;;;;14.13;9.00;;;4.10;99.90;;;;;;5012004;28;20308;-71
2022/12/05 05:10:34;;;;;;;13.95;9.50;;;4.10;99.90;;;;;;5010290;28;20205;-73
2022/12/05 05:12:59;;;;;;;11.93;8.07;;;4.00;99.90;;;;;;5014192;28;20169;-71
2022/12/05 05:15:25;;;;;;;11.82;8.63;;;4.10;99.90;;;;;;5005456;28;20251;-71
2022/12/05 05:17:51;;;;;;;14.13;9.38;;;4.10;99.90;;;;;;5006086;28;20205;-73
2022/12/05 05:20:22;;;;;;;16.50;11.13;;;4.00;99.90;;;;;;5010370;28;20696;-71
2022/12/05 05:22:56;;;;;;;13.95;9.88;;;4.00;99.90;;;;;;5013630;28;20178;-71
2022/12/05 05:25:22;;;;;;;15.90;10.60;;;4.10;99.90;;;;;;5013515;28;20662;-71
2022/12/05 05:27:50;;;;;;;13.38;10.30;;;4.10;99.90;;;;;;5009326;28;20247;-71
2022/12/05 05:30:16;;;;;;;12.02;8.35;;;4.10;99.90;;;;;;5006273;28;20177;-71
2022/12/05 05:32:42;;;;;;;14.82;11.15;;;4.10;99.90;;;;;;5000141;28;20170;-72
2022/12/05 05:35:08;;;;;;;14.50;10.63;;;4.10;99.90;;;;;;5012191;28;20698;-71
2022/12/05 05:37:34;;;;;;;12.05;7.55;;;4.10;99.90;;;;;;4999909;28;20205;-71
2022/12/05 05:39:59;;;;;;;16.35;10.48;;;4.10;99.90;;;;;;5012169;28;20257;-72
2022/12/05 05:42:25;;;;;;;15.18;11.18;;;4.10;99.90;;;;;;5008675;28;20181;-72
2022/12/05 05:44:50;;;;;;;14.30;9.65;;;4.00;99.90;;;;;;5005728;28;20173;-72
2022/12/05 05:47:16;;;;;;;17.70;12.05;;;3.90;99.90;;;;;;5013756;28;20292;-71
2022/12/05 05:49:42;;;;;;;18.10;12.60;;;4.00;99.90;;;;;;5013699;28;20710;-72
2022/12/05 05:52:07;;;;;;;17.02;11.68;;;3.90;99.90;;;;;;5013565;28;20257;-73
2022/12/05 05:54:33;;;;;;;16.92;12.15;;;3.90;99.90;;;;;;5011380;28;20212;-71
2022/12/05 05:56:58;;;;;;;14.93;10.40;;;4.00;99.90;;;;;;5012830;28;20194;-72
2022/12/05 05:59:24;;;;;;;12.85;8.68;;;4.10;99.90;;;;;;5005558;28;20177;-72
2022/12/05 06:01:50;;;;;;;19.48;11.25;;;4.00;99.90;;;;;;4999732;28;20170;-72
2022/12/05 06:04:15;;;;;;;17.38;10.50;;;4.00;99.90;;;;;;5007322;28;20702;-72
2022/12/05 06:06:41;;;;;;;14.73;9.30;;;4.10;99.90;;;;;;5013360;28;20280;-72
2022/12/05 06:09:07;;;;;;;20.70;11.25;;;4.10;99.90;;;;;;5012043;28;20201;-72
2022/12/05 06:11:32;;;;;;;18.23;13.00;;;4.00;99.90;;;;;;5013512;28;20178;-71
2022/12/05 06:14:01;;;;;;;13.40;9.77;;;3.90;99.90;;;;;;5007418;28;20178;-71
2022/12/05 06:16:29;;;;;;;16.15;9.35;;;3.90;99.90;;;;;;5005057;28;20174;-71
2022/12/05 06:18:55;;;;;;;15.98;11.57;;;4.00;99.90;;;;;;5007886;28;20581;-71
2022/12/05 06:21:21;;;;;;;13.40;9.55;;;4.00;99.90;;;;;;5010223;28;20189;-71
2022/12/05 06:23:48;;;;;;;18.98;12.80;;;4.00;99.90;;;;;;5008144;28;20272;-71
2022/12/05 06:26:18;;;;;;;18.60;11.52;;;4.00;99.90;;;;;;5005680;28;20174;-71
2022/12/05 06:28:44;;;;;;;16.95;10.95;;;3.90;99.90;;;;;;5006344;28;20233;-71
2022/12/05 06:31:16;;;;;;;19.25;13.32;;;4.00;99.90;;;;;;5012840;28;20204;-71
2022/12/05 06:33:43;;;;;;;16.88;10.30;;;3.90;99.90;;;;;;5008029;28;20184;-71
2022/12/05 06:36:12;;;;;;;19.02;12.00;;;3.90;99.90;;;;;;5012432;28;20181;-71
2022/12/05 06:38:38;;;;;;;21.30;13.93;;;3.90;99.90;;;;;;5012450;28;20197;-72
2022/12/05 06:41:10;;;;;;;17.17;12.63;;;3.90;99.90;;;;;;5006378;28;20288;-72
2022/12/05 06:43:35;;;;;;;18.77;11.02;;;3.90;99.90;;;;;;5011850;28;20664;-72
2022/12/05 06:46:09;;;;;;;16.63;11.50;;;3.90;99.90;;;;;;5009575;28;20208;-73
2022/12/05 06:48:34;;;;;;;18.05;11.32;;;3.90;99.90;;;;;;5011575;28;20201;-72
2022/12/05 06:51:00;;;;;;;20.58;13.40;;;3.80;99.90;;;;;;5010326;28;20513;-72
2022/12/05 06:53:26;;;;;;;14.55;7.03;;;3.70;99.90;;;;;;5010266;28;20173;-72
2022/12/05 06:56:00;;;;;;;12.73;8.60;;;3.70;99.90;;;;;;5010282;28;20174;-72
2022/12/05 06:58:26;;;;;;;13.07;8.30;;;3.70;99.90;;;;;;5008079;28;20201;-73
2022/12/05 07:03:37;;;;;;;15.50;10.65;;;3.90;99.90;;;;;;5007487;28;20605;-73
2022/12/05 07:06:04;;;;;;;16.13;10.55;;;3.80;99.90;;;;;;5006249;28;20169;-73
2022/12/05 07:08:31;;;;;;;16.00;11.88;;;3.80;99.90;;;;;;5007950;28;20209;-74
2022/12/05 07:10:56;;;;;;;17.52;11.60;;;3.80;99.90;;;;;;5012086;28;20201;-73
2022/12/05 07:13:22;;;;;;;16.13;9.07;;;3.80;99.90;;;;;;5010164;28;20200;-73
2022/12/05 07:15:49;;;;;;;16.10;11.43;;;3.80;99.90;;;;;;5007216;28;20205;-74
2022/12/05 07:18:15;;;;;;;17.75;11.38;;;3.80;99.90;;;;;;5005690;28;20198;-72
2022/12/05 07:20:42;;;;;;;14.95;9.10;;;3.70;99.90;;;;;;5003593;28;20212;-73
2022/12/05 07:23:07;;;;;;;21.55;12.07;;;3.60;99.90;;;;;;5011249;28;20659;-73
2022/12/05 07:25:33;;;;;;;17.35;9.60;;;3.70;99.90;;;;;;5007374;28;20193;-75
2022/12/05 07:27:58;;;;;;;18.08;12.75;;;3.70;99.90;;;;;;5006413;28;20206;-74
2022/12/05 07:30:24;;;;;;;22.23;11.57;;;3.70;99.90;;;;;;5001105;28;20177;-73
2022/12/05 07:32:50;;;;;;;22.60;14.18;;;3.70;99.90;;;;;;5011677;28;20181;-74
2022/12/05 07:35:15;;;;;;;24.42;13.02;;;3.60;99.90;;;;;;5011599;28;20213;-73
2022/12/05 07:37:41;;;;;;;19.20;13.27;;;3.60;99.90;;;;;;5003327;28;20204;-73
2022/12/05 07:40:07;;;;;;;16.15;9.75;;;3.60;99.90;;;;;;5006373;28;20543;-73
2022/12/05 07:42:33;;;;;;;15.75;11.23;;;3.70;99.90;;;;;;5011069;28;20200;-73
2022/12/05 07:44:58;;;;;;;20.58;11.73;;;3.80;99.90;;;;;;5005192;28;20657;-73
2022/12/05 07:47:24;;;;;;;19.08;12.05;;;3.90;99.90;;;;;;5010546;28;20691;-73
2022/12/05 07:49:49;;;;;;;19.13;11.75;;;3.80;99.90;;;;;;5008734;28;20169;-73
2022/12/05 07:52:15;;;;;;;22.02;13.70;;;3.80;99.90;;;;;;5005379;28;20243;-73
2022/12/05 07:54:40;;;;;;;20.08;12.95;;;3.70;99.90;;;;;;5011077;28;20204;-74
2022/12/05 07:57:06;;;;;;;28.27;14.23;;;3.70;99.90;;;;;;5005238;28;20574;-73
2022/12/05 07:59:32;;;;;;;24.02;15.20;;;3.70;99.90;;;;;;5007912;28;20165;-73
2022/12/05 08:01:57;;;;;;;22.63;13.73;;;3.70;99.90;;;;;;5005661;28;20173;-74
2022/12/05 08:04:23;;;;;;;27.60;14.57;;;3.60;99.90;;;;;;5005607;28;20759;-75
2022/12/05 08:06:48;;;;;;;23.90;11.25;;;3.80;99.90;;;;;;5011523;28;20201;-73
2022/12/05 08:09:14;;;;;;;32.90;15.63;;;3.80;99.90;;;;;;5010536;28;20224;-74
2022/12/05 08:11:40;;;;;;;26.00;16.35;;;3.70;99.90;;;;;;5011182;28;20223;-74
2022/12/05 08:14:05;;;;;;;26.88;14.60;;;3.60;99.90;;;;;;5011313;28;20173;-71
2022/12/05 08:16:32;;;;;;;32.53;18.05;;;3.60;99.90;;;;;;5004827;28;20527;-72
2022/12/05 08:19:03;;;;;;;31.00;15.55;;;3.50;99.90;;;;;;5012887;28;20640;-74
2022/12/05 08:21:29;;;;;;;29.65;17.25;;;3.50;99.90;;;;;;5014689;28;20181;-73
2022/12/05 08:23:54;;;;;;;29.30;16.15;;;3.60;99.90;;;;;;5010258;28;20185;-69
2022/12/05 08:26:29;;;;;;;17.67;10.98;;;3.60;99.90;;;;;;5011171;28;20213;-71
2022/12/05 08:29:00;;;;;;;30.63;17.58;;;3.60;99.90;;;;;;5009887;28;20224;-70
2022/12/05 08:31:28;;;;;;;29.33;17.13;;;3.60;99.90;;;;;;5010642;28;20680;-72
2022/12/05 08:33:57;;;;;;;25.45;15.27;;;3.70;99.90;;;;;;5012947;28;20762;-72
2022/12/05 08:36:23;;;;;;;25.88;15.80;;;3.70;99.90;;;;;;5013355;28;20184;-72
2022/12/05 08:38:48;;;;;;;23.08;15.60;;;3.70;99.90;;;;;;5007160;28;20182;-73
2022/12/05 08:41:16;;;;;;;28.80;16.65;;;3.80;99.90;;;;;;5010328;28;20263;-73
2022/12/05 08:43:43;;;;;;;27.83;15.23;;;3.90;99.90;;;;;;5012709;28;20184;-73
2022/12/05 08:46:09;;;;;;;29.60;15.32;;;4.00;99.90;;;;;;5011422;28;20215;-73
2022/12/05 08:48:35;;;;;;;26.65;16.17;;;4.10;99.90;;;;;;5013266;28;20317;-74
2022/12/05 08:51:09;;;;;;;24.13;14.63;;;4.20;99.90;;;;;;5013802;28;20178;-79
2022/12/05 08:53:35;;;;;;;27.55;15.88;;;4.20;99.90;;;;;;5010428;28;20170;-73
2022/12/05 08:56:03;;;;;;;26.17;16.15;;;4.20;99.90;;;;;;5014487;28;20208;-73
2022/12/05 08:58:29;;;;;;;24.45;15.35;;;4.20;99.90;;;;;;5008507;28;20271;-74
2022/12/05 09:01:03;;;;;;;28.10;14.70;;;4.20;99.90;;;;;;5012245;28;20273;-73
2022/12/05 09:03:29;;;;;;;22.35;15.27;;;4.20;99.90;;;;;;5024155;28;20187;-72
2022/12/05 09:06:03;;;;;;;24.15;12.98;;;4.20;99.90;;;;;;5007474;28;20174;-73
2022/12/05 09:08:29;;;;;;;24.65;15.15;;;4.20;99.90;;;;;;5010332;28;20216;-73
2022/12/05 09:10:54;;;;;;;24.17;14.38;;;4.30;99.90;;;;;;5004586;28;20192;-73
2022/12/05 09:13:20;;;;;;;22.15;14.25;;;4.50;99.90;;;;;;5011817;28;20181;-73
2022/12/05 09:15:45;;;;;;;24.02;15.23;;;4.70;99.90;;;;;;5014697;28;20165;-74
2022/12/05 09:18:11;;;;;;;24.60;16.58;;;4.80;99.90;;;;;;5009040;28;20197;-74
2022/12/05 09:20:38;;;;;;;22.17;14.70;;;4.90;99.90;;;;;;5011952;28;20192;-72
2022/12/05 09:23:04;;;;;;;23.95;15.10;;;5.00;99.90;;;;;;5009707;28;20196;-73
2022/12/05 09:25:29;;;;;;;21.23;13.90;;;4.90;99.90;;;;;;5014208;28;20173;-73
2022/12/05 09:27:55;;;;;;;20.75;14.43;;;5.00;99.90;;;;;;5007750;28;20201;-74
2022/12/05 09:30:20;;;;;;;23.55;14.63;;;5.10;99.90;;;;;;5010754;28;20170;-73
2022/12/05 09:32:46;;;;;;;23.35;15.77;;;5.30;99.90;;;;;;5013240;28;20178;-72
2022/12/05 09:35:12;;;;;;;21.50;15.02;;;5.40;99.90;;;;;;5010248;28;20173;-73
2022/12/05 09:37:37;;;;;;;23.50;15.05;;;5.30;99.90;;;;;;5013494;28;20237;-73
2022/12/05 09:40:03;;;;;;;24.40;16.90;;;5.30;99.90;;;;;;5010910;28;20668;-73
2022/12/05 09:42:32;;;;;;;25.13;16.73;;;5.30;99.90;;;;;;5008279;28;20186;-73
2022/12/05 09:45:34;;;;;;;21.33;14.65;;;5.20;99.90;;;;;;5010940;28;20635;-73
2022/12/05 09:48:08;;;;;;;21.30;14.02;;;5.10;99.90;;;;;;4997689;28;20216;-73
2022/12/05 09:50:44;;;;;;;21.40;13.60;;;5.10;99.90;;;;;;5008678;28;20195;-77
2022/12/05 09:53:29;;;;;;;26.50;16.42;;;5.00;99.90;;;;;;5005852;28;20260;-75
2022/12/05 09:56:08;;;;;;;25.20;16.88;;;5.10;99.90;;;;;;5006156;28;20173;-75
2022/12/05 09:58:44;;;;;;;24.35;16.77;;;5.00;99.90;;;;;;5005655;28;20205;-73
2022/12/05 10:01:31;;;;;;;21.00;14.85;;;5.00;99.90;;;;;;5010925;28;20556;-73
2022/12/05 10:04:09;;;;;;;22.73;14.65;;;5.10;99.90;;;;;;5002484;28;20524;-73
2022/12/05 10:07:18;;;;;;;20.80;14.52;;;5.20;99.90;;;;;;5007100;28;20554;-73
2022/12/05 10:09:55;;;;;;;22.67;15.35;;;5.20;99.90;;;;;;4979970;28;20630;-73
2022/12/05 10:12:24;;;;;;;21.95;14.35;;;5.20;99.90;;;;;;5009433;28;20184;-73
2022/12/05 10:15:26;;;;;;;16.58;10.85;;;5.20;99.90;;;;;;5006321;28;20209;-73
2022/12/05 10:18:02;;;;;;;20.23;14.85;;;5.20;99.90;;;;;;5009465;28;20207;-73
2022/12/05 10:20:35;;;;;;;15.07;10.02;;;5.10;99.90;;;;;;5012077;28;20224;-72
2022/12/05 10:23:26;;;;;;;25.33;15.07;;;5.00;99.90;;;;;;5011866;28;20227;-72
2022/12/05 10:25:58;;;;;;;22.40;14.73;;;5.00;99.90;;;;;;5007703;28;20185;-72
2022/12/05 10:28:36;;;;;;;23.40;14.45;;;4.80;99.90;;;;;;5008716;28;20205;-76
2022/12/05 10:31:06;;;;;;;25.52;16.60;;;4.60;99.90;;;;;;5000841;28;20177;-71
2022/12/05 10:33:46;;;;;;;27.02;16.63;;;4.40;99.90;;;;;;5011113;28;20185;-72
2022/12/05 10:36:13;;;;;;;27.70;18.30;;;4.30;99.90;;;;;;5005972;28;20166;-71
2022/12/05 10:38:41;;;;;;;24.75;15.02;;;4.10;99.90;;;;;;5007760;28;20250;-71
2022/12/05 10:41:09;;;;;;;23.77;14.23;;;4.00;99.90;;;;;;5011504;28;20177;-74
2022/12/05 10:43:38;;;;;;;24.65;15.55;;;3.90;99.90;;;;;;5012508;28;20664;-77
2022/12/05 10:46:04;;;;;;;17.00;11.38;;;3.80;99.90;;;;;;5009170;28;20185;-76
2022/12/05 10:48:33;;;;;;;20.08;12.05;;;3.70;99.90;;;;;;5004632;28;20280;-76
2022/12/05 10:50:59;;;;;;;21.75;13.93;;;3.60;99.90;;;;;;5007936;28;20495;-73
2022/12/05 10:53:34;;;;;;;21.40;15.20;;;3.70;99.90;;;;;;5003800;28;20174;-73
2022/12/05 10:56:00;;;;;;;23.60;15.75;;;3.60;99.90;;;;;;5012459;28;20180;-73
2022/12/05 10:58:29;;;;;;;25.25;14.88;;;3.60;99.90;;;;;;5007975;28;20280;-73
2022/12/05 11:01:07;;;;;;;20.80;11.68;;;3.50;99.90;;;;;;5010059;28;20181;-73
2022/12/05 11:03:36;;;;;;;24.20;14.48;;;3.20;99.90;;;;;;5009686;28;20264;-72
2022/12/05 11:06:17;;;;;;;23.25;15.10;;;3.00;99.90;;;;;;5008359;28;20259;-73
2022/12/05 11:08:55;;;;;;;23.15;14.05;;;2.80;99.90;;;;;;5004237;28;20633;-73
2022/12/05 11:11:24;;;;;;;28.23;16.75;;;2.70;99.90;;;;;;5011184;28;20176;-73
2022/12/05 11:14:05;;;;;;;26.70;15.70;;;2.70;99.90;;;;;;5004503;28;20177;-73
2022/12/05 11:16:37;;;;;;;28.92;15.23;;;2.60;99.90;;;;;;5005721;28;20169;-73
2022/12/05 11:19:23;;;;;;;25.80;16.67;;;2.50;99.90;;;;;;5008443;28;20605;-73
2022/12/05 11:21:50;;;;;;;29.17;15.52;;;2.40;99.90;;;;;;5010414;28;20217;-73
2022/12/05 11:24:21;;;;;;;23.42;15.23;;;2.60;99.90;;;;;;5003822;28;20285;-73
2022/12/05 11:26:47;;;;;;;25.13;14.77;;;2.80;99.90;;;;;;5003484;28;20223;-73
2022/12/05 11:29:28;;;;;;;22.33;14.35;;;3.10;99.90;;;;;;5000621;28;20299;-76
2022/12/05 11:31:53;;;;;;;21.30;14.82;;;3.50;99.90;;;;;;5002810;28;20203;-76
2022/12/05 11:34:28;;;;;;;22.27;12.65;;;3.70;99.90;;;;;;5007590;28;20224;-77
2022/12/05 11:37:05;;;;;;;19.63;13.45;;;4.00;99.90;;;;;;5002232;28;20228;-77
2022/12/05 11:39:32;;;;;;;23.80;14.25;;;4.20;99.90;;;;;;5001546;28;20260;-76
2022/12/05 11:42:23;;;;;;;21.17;13.50;;;4.40;99.90;;;;;;5005734;28;20174;-76
2022/12/05 11:45:16;;;;;;;24.48;15.60;;;4.60;99.90;;;;;;5000168;28;20188;-78
2022/12/05 11:47:58;;;;;;;18.85;13.30;;;4.80;99.90;;;;;;5005550;28;20236;-78
2022/12/05 11:50:31;;;;;;;20.52;14.18;;;5.00;99.90;;;;;;5004249;28;20173;-77
2022/12/05 11:53:24;;;;;;;15.93;11.82;;;5.00;99.90;;;;;;5006596;28;20188;-77
2022/12/05 11:55:52;;;;;;;15.38;11.30;;;5.00;99.90;;;;;;5011631;28;20267;-77
2022/12/05 11:58:18;;;;;;;14.85;10.32;;;4.90;99.90;;;;;;5003621;28;20708;-77
2022/12/05 12:01:09;;;;;;;15.48;11.15;;;4.80;99.90;;;;;;5010490;28;20191;-77
2022/12/05 12:03:53;;;;;;;17.42;11.48;;;4.80;99.90;;;;;;5007290;28;20247;-77
2022/12/05 12:06:40;;;;;;;15.63;10.45;;;4.70;99.90;;;;;;5011419;28;20180;-77
2022/12/05 12:09:50;;;;;;;13.48;11.60;;;4.60;99.90;;;;;;5011561;28;20205;-77
2022/12/05 12:12:50;;;;;;;14.77;10.32;;;4.60;99.90;;;;;;4999422;28;20188;-77
2022/12/05 12:16:03;;;;;;;15.70;11.23;;;4.60;99.90;;;;;;4990724;28;20193;-77
2022/12/05 12:18:41;;;;;;;12.23;9.65;;;4.50;99.90;;;;;;5008380;28;20615;-77
2022/12/05 12:21:42;;;;;;;12.40;9.05;;;4.40;99.90;;;;;;5008946;28;20177;-77
2022/12/05 12:24:17;;;;;;;9.40;7.90;;;4.50;99.90;;;;;;5003615;28;20236;-75
2022/12/05 12:26:57;;;;;;;9.93;8.68;;;4.50;99.90;;;;;;5010054;28;20671;-75
2022/12/05 12:30:12;;;;;;;13.75;9.13;;;4.50;99.90;;;;;;5004088;28;20668;-75
2022/12/05 12:32:55;;;;;;;11.48;9.15;;;4.40;99.90;;;;;;5005557;28;20193;-76
2022/12/05 12:35:28;;;;;;;11.82;9.15;;;4.40;99.90;;;;;;5011376;28;20632;-75
2022/12/05 12:38:11;;;;;;;11.45;8.65;;;4.30;99.90;;;;;;5009275;28;20260;-76
2022/12/05 12:40:50;;;;;;;10.35;8.48;;;4.20;99.90;;;;;;5008927;28;20185;-75
2022/12/05 12:43:41;;;;;;;10.13;9.00;;;4.20;99.90;;;;;;5010100;28;20189;-75
2022/12/05 12:46:28;;;;;;;10.73;8.30;;;4.30;99.90;;;;;;5010118;28;20686;-75
2022/12/05 12:49:20;;;;;;;11.32;7.97;;;4.30;99.90;;;;;;5010512;28;20264;-75
2022/12/05 12:51:52;;;;;;;11.75;8.52;;;4.30;99.90;;;;;;5022918;28;20181;-74
2022/12/05 12:54:40;;;;;;;8.10;7.30;;;4.40;99.90;;;;;;5005417;28;20265;-75
2022/12/05 12:57:47;;;;;;;9.38;7.55;;;4.40;99.90;;;;;;5008380;28;20197;-75
2022/12/05 13:00:32;;;;;;;9.23;8.13;;;4.50;99.90;;;;;;5010429;28;20247;-75
2022/12/05 13:03:16;;;;;;;9.95;7.32;;;4.60;99.90;;;;;;5004998;28;20193;-75
2022/12/05 13:05:55;;;;;;;11.25;8.88;;;4.70;99.90;;;;;;5010838;28;20189;-74
2022/12/05 13:08:34;;;;;;;9.63;8.25;;;4.70;99.90;;;;;;5011792;28;20241;-74
2022/12/05 13:11:04;;;;;;;11.43;8.70;;;4.60;99.90;;;;;;5010519;28;20264;-73
2022/12/05 13:13:37;;;;;;;9.38;7.93;;;4.50;99.90;;;;;;5007178;28;20664;-75
2022/12/05 13:16:06;;;;;;;8.98;7.68;;;4.60;99.90;;;;;;5011019;28;20185;-75
2022/12/05 13:18:33;;;;;;;10.85;7.93;;;4.70;99.90;;;;;;5014359;28;20190;-74